Flight Track Log - Related Links

Times and Time Zones

All times are in EDT time to prevent confusion due to time zone crossing. See the UAL4180 flight status page for this flight to view local times or setup timezone preferences in your user account.

Time Position Orientation Groundspeed Altitude Reporting Facility
EDT Latitude Longitude Course Direction KTS MPH feet Rate Location/Type
Mon 08:01:52 AM 27.7508 -97.4867 141° Southeast 154 177 1,200  Level Houston Center
Mon 08:02:11 AM 27.7394 -97.4764 141° Southeast 159 183 1,900 1,671 Climbing Houston Center
Mon 08:03:11 AM 27.7444 -97.4261 84° East 235 270 3,400 1,367 Climbing Houston Center
Mon 08:03:30 AM 27.7556 -97.4219 18° North 318 366 3,700 2,557 Climbing Houston Center
Mon 08:04:12 AM 27.8192 -97.4181 North 276 318 6,000 2,557 Climbing Houston Center
Mon 08:04:31 AM 27.8317 -97.4144 14° North 278 320 6,300 1,926 Climbing Houston Center
Mon 08:05:33 AM 27.9072 -97.4047 North 274 315 8,600 2,195 Climbing Houston Center
Mon 08:06:34 AM 27.9967 -97.3928 North 277 319 10,800 1,574 Climbing Houston Center
Mon 08:07:35 AM 28.0811 -97.3586 20° North 320 368 11,800 1,180 Climbing Houston Center
Mon 08:08:36 AM 28.1661 -97.3131 25° Northeast 336 387 13,200 1,268 Climbing Houston Center
Mon 08:09:38 AM 28.2561 -97.2686 24° Northeast 350 403 14,400 1,073 Climbing Houston Center
Mon 08:10:39 AM 28.3508 -97.2217 24° Northeast 368 423 15,400 1,082 Climbing Houston Center
Mon 08:11:40 AM 28.4475 -97.1733 24° Northeast 379 436 16,600 732 Climbing Houston Center
Mon 08:12:42 AM 28.5347 -97.0942 39° Northeast 395 455 16,900 146 Climbing Houston Center
Mon 08:13:43 AM 28.6442 -96.9953 38° Northeast 418 481 16,900  Level Houston Center
Mon 08:14:44 AM 28.7350 -96.9142 38° Northeast 416 479 16,900  Level Houston Center
Mon 08:15:46 AM 28.8231 -96.8319 39° Northeast 412 474 16,900  Level Houston Center
Mon 08:16:47 AM 28.9117 -96.7525 38° Northeast 409 471 16,900  Level Houston Center
Mon 08:17:49 AM 28.9994 -96.6708 39° Northeast 409 471 16,900  Level Houston Center
Mon 08:18:50 AM 29.0864 -96.5908 39° Northeast 406 467 16,900  Level Houston Center
Mon 08:19:52 AM 29.1767 -96.5092 38° Northeast 416 479 16,900 71 Level Houston Center
Mon 08:20:14 AM 29.2131 -96.4764 38° Northeast 421 484 17,000 -787 Climbing Houston Center
Mon 08:20:53 AM 29.2842 -96.4089 40° Northeast 418 481 16,100 -1,412 Descending Houston Center
Mon 08:21:22 AM 29.3278 -96.3706 37° Northeast 415 478 15,400 -1,742 Descending Houston Center
Mon 08:21:55 AM 29.3711 -96.3300 39° Northeast 405 466 14,300 -1,900 Descending Houston Center
Mon 08:22:22 AM 29.4136 -96.2917 38° Northeast 397 457 13,500 -1,770 Descending Houston Center
Mon 08:22:56 AM 29.4547 -96.2525 40° Northeast 390 449 12,500 -1,343 Descending Houston Center
Mon 08:23:29 AM 29.5069 -96.2047 39° Northeast 372 428 12,000 -484 Descending Houston Center
Mon 08:23:58 AM 29.5347 -96.1772 41° Northeast 377 434 12,000 -295 Level Houston Center
Mon 08:24:30 AM 29.5722 -96.1108 57° Northeast 380 437 11,700 -787 Descending Houston Center
Mon 08:24:59 AM 29.5914 -96.0758 58° Northeast 379 436 11,200 -1,433 Descending Houston Center
Mon 08:25:37 AM 29.6300 -96.0011 59° Northeast 365 420 10,100 -1,161 Descending Houston Center
Mon 08:26:01 AM 29.6425 -95.9747 61° Northeast 372 428 10,000 -98 Descending Houston Center
Mon 08:26:38 AM 29.6819 -95.8989 59° Northeast 353 406 10,000  Level Houston Center
Mon 08:27:02 AM 29.6914 -95.8789 61° Northeast 356 410 10,000  Level Houston Center
Mon 08:27:39 AM 29.7319 -95.7994 60° Northeast 352 405 10,000  Level Houston Center
Mon 08:28:04 AM 29.7497 -95.7617 62° Northeast 353 406 10,000 -393 Level Houston Center
Mon 08:28:40 AM 29.7744 -95.7128 60° Northeast 280 322 9,600 -1,082 Descending Houston Center
Mon 08:29:05 AM 29.7900 -95.6819 60° Northeast 301 346 8,900 -1,672 Descending Houston Center
Mon 08:29:41 AM 29.8119 -95.6361 61° Northeast 274 315 7,900 -1,645 Descending Houston Center
Mon 08:30:07 AM 29.8272 -95.6072 59° Northeast 270 311 7,200 -1,600 Descending Houston Center
Mon 08:30:41 AM 29.8511 -95.5592 60° Northeast 263 303 6,300 -1,161 Descending Houston Center
Mon 08:31:09 AM 29.8636 -95.5339 60° Northeast 265 305 6,000 -327 Descending Houston Center
Mon 08:31:36 AM 29.8814 -95.4978 60° Northeast 253 291 6,000  Level Houston Center
Mon 08:32:10 AM 29.8964 -95.4608 65° Northeast 258 297 6,000  Level Houston Center
Mon 08:32:38 AM 29.8944 -95.4119 93° East 276 318 6,000  Level Houston Center
Mon 08:33:12 AM 29.8961 -95.3722 87° East 275 316 6,000  Level Houston Center
Mon 08:33:39 AM 29.8969 -95.3250 89° East 271 312 6,000  Level Houston Center
Mon 08:34:13 AM 29.8967 -95.2861 90° East 271 312 6,000  Level Houston Center
Mon 08:34:40 AM 29.8972 -95.2356 89° East 264 304 6,000 -290 Level Houston Center
Mon 08:35:15 AM 29.8978 -95.2022 89° East 263 303 5,700 -2,149 Descending Houston Center
Mon 08:35:47 AM 29.8978 -95.1511 90° East 234 269 3,600 -3,000 Descending Houston Center
Mon 08:36:17 AM 29.8975 -95.1225 91° East 249 287 2,600 -1,636 Descending Houston Center
Mon 08:36:42 AM 29.9147 -95.0864 61° Northeast 237 273 2,100 -590 Descending Houston Center
Mon 08:37:18 AM 29.9414 -95.0761 18° North 242 278 2,000 -90 Descending Houston Center
Mon 08:37:49 AM 29.9783 -95.0906 341° North 220 253 2,000  Level Houston Center
Mon 08:38:20 AM 29.9778 -95.1194 269° West 208 239 2,000  Level Houston Center
Mon 08:38:50 AM 29.9778 -95.1533 270° West 192 221 2,000  Level Houston Center
Mon 08:39:21 AM 29.9789 -95.1811 273° West 197 227 2,000 -321 Level Houston Center
Mon 08:39:46 AM 29.9769 -95.2114 266° West 193 222 1,700 -720 Descending Houston Center

Login

Don't have an account? Register now (free) for customized features, flight alerts, and more!